Time;durP1;ratioP1;P1;durP2;ratioP2;P2;SDS_P1;SDS_P2;PMS_P1;PMS_P2;Temp;Humidity;BMP_temperature;BMP_pressure;BME280_temperature;BME280_humidity;BME280_pressure;Samples;Min_cycle;Max_cycle;Signal;HPM_P1;HPM_P2
2022/03/28 00:01:34;;;;;;;6.00;5.13;;;;;;;;;;4819657;29;20049;-81
2022/03/28 00:04:00;;;;;;;8.45;5.05;;;;;;;;;;4805225;29;20065;-81
2022/03/28 00:06:26;;;;;;;7.22;4.90;;;;;;;;;;4817814;29;20062;-81
2022/03/28 00:08:52;;;;;;;9.35;4.95;;;;;;;;;;4803828;29;20065;-81
2022/03/28 00:11:19;;;;;;;5.85;5.25;;;;;;;;;;4804622;29;20130;-81
2022/03/28 00:13:45;;;;;;;7.80;5.30;;;;;;;;;;4817126;29;20051;-81
2022/03/28 00:16:11;;;;;;;6.32;5.00;;;;;;;;;;4816907;29;20851;-81
2022/03/28 00:18:37;;;;;;;5.68;5.10;;;;;;;;;;4820044;29;20042;-81
2022/03/28 00:21:03;;;;;;;6.72;5.20;;;;;;;;;;4821739;29;20115;-80
2022/03/28 00:23:32;;;;;;;6.28;5.68;;;;;;;;;;4818664;29;21203;-81
2022/03/28 00:25:58;;;;;;;8.02;6.28;;;;;;;;;;4820556;29;20047;-82
2022/03/28 00:28:24;;;;;;;7.60;5.97;;;;;;;;;;4804250;29;20076;-82
2022/03/28 00:30:50;;;;;;;8.73;5.60;;;;;;;;;;4801626;29;20077;-82
2022/03/28 00:33:16;;;;;;;6.53;5.38;;;;;;;;;;4819242;29;20067;-82
2022/03/28 00:35:45;;;;;;;7.55;5.47;;;;;;;;;;4818608;29;20559;-82
2022/03/28 00:38:12;;;;;;;7.13;5.60;;;;;;;;;;4819845;29;20046;-81
2022/03/28 00:40:39;;;;;;;6.50;5.05;;;;;;;;;;4803218;29;20149;-82
2022/03/28 00:43:06;;;;;;;5.65;4.68;;;;;;;;;;4802141;29;20548;-82
2022/03/28 00:45:33;;;;;;;5.80;4.80;;;;;;;;;;4820246;29;20064;-81
2022/03/28 00:48:00;;;;;;;5.22;4.72;;;;;;;;;;4802108;29;20129;-81
2022/03/28 00:50:28;;;;;;;6.07;5.47;;;;;;;;;;4818534;29;20752;-81
2022/03/28 00:52:54;;;;;;;6.00;5.45;;;;;;;;;;4805238;29;20403;-81
2022/03/28 00:55:20;;;;;;;8.40;6.00;;;;;;;;;;4802016;29;20046;-82
2022/03/28 00:57:46;;;;;;;7.07;5.88;;;;;;;;;;4803131;29;20423;-81
2022/03/28 01:00:12;;;;;;;6.88;6.28;;;;;;;;;;4818468;29;20051;-81
2022/03/28 01:02:38;;;;;;;9.40;5.80;;;;;;;;;;4818892;29;20086;-81
2022/03/28 01:05:05;;;;;;;9.43;6.75;;;;;;;;;;4804829;29;20061;-81
2022/03/28 01:07:34;;;;;;;8.50;7.03;;;;;;;;;;4803585;29;20510;-81
2022/03/28 01:10:01;;;;;;;9.25;7.30;;;;;;;;;;4819995;29;20047;-81
2022/03/28 01:12:28;;;;;;;9.15;8.25;;;;;;;;;;4820479;29;20465;-81
2022/03/28 01:14:55;;;;;;;10.43;8.63;;;;;;;;;;4801363;29;20042;-81
2022/03/28 01:20:06;;;;;;;11.10;10.00;;;;;;;;;;4819400;29;20051;-81
2022/03/28 01:22:32;;;;;;;11.38;10.18;;;;;;;;;;4820084;29;20057;-81
2022/03/28 01:25:03;;;;;;;11.10;10.00;;;;;;;;;;4820397;29;20137;-82
2022/03/28 01:27:29;;;;;;;11.68;10.48;;;;;;;;;;4796923;29;20046;-82
2022/03/28 01:29:55;;;;;;;10.95;9.82;;;;;;;;;;4789015;29;20046;-82
2022/03/28 01:32:21;;;;;;;11.63;9.93;;;;;;;;;;4803190;29;20051;-81
2022/03/28 01:34:48;;;;;;;10.88;9.65;;;;;;;;;;4792731;29;20061;-81
2022/03/28 01:37:14;;;;;;;10.90;9.80;;;;;;;;;;4815164;29;20137;-82
2022/03/28 01:39:40;;;;;;;10.68;9.63;;;;;;;;;;4819006;29;20042;-81
2022/03/28 01:42:06;;;;;;;10.75;9.43;;;;;;;;;;4804070;29;20050;-81
2022/03/28 01:44:33;;;;;;;9.98;8.38;;;;;;;;;;4802170;29;20051;-81
2022/03/28 01:46:59;;;;;;;8.82;7.93;;;;;;;;;;4804901;29;20050;-81
2022/03/28 01:49:25;;;;;;;9.15;7.85;;;;;;;;;;4799029;29;20408;-82
2022/03/28 01:51:51;;;;;;;8.05;7.30;;;;;;;;;;4817059;29;20049;-82
2022/03/28 01:54:17;;;;;;;7.22;6.53;;;;;;;;;;4818479;29;20179;-81
2022/03/28 01:56:44;;;;;;;6.60;5.47;;;;;;;;;;4817395;29;20138;-80
2022/03/28 01:59:10;;;;;;;7.80;5.68;;;;;;;;;;4800704;29;20070;-81
2022/03/28 02:01:38;;;;;;;5.72;5.20;;;;;;;;;;4817626;29;20418;-81
2022/03/28 02:04:04;;;;;;;6.00;5.40;;;;;;;;;;4802750;29;20492;-81
2022/03/28 02:06:32;;;;;;;5.80;5.30;;;;;;;;;;4799313;29;20500;-81
2022/03/28 02:08:58;;;;;;;5.72;5.13;;;;;;;;;;4820156;29;20050;-81
2022/03/28 02:11:24;;;;;;;5.60;5.10;;;;;;;;;;4801010;29;20139;-82
2022/03/28 02:13:50;;;;;;;6.55;5.15;;;;;;;;;;4817749;29;20055;-81
2022/03/28 02:16:17;;;;;;;10.85;5.13;;;;;;;;;;4818202;29;20098;-81
2022/03/28 02:18:43;;;;;;;7.30;5.53;;;;;;;;;;4819075;29;20045;-81
2022/03/28 02:21:09;;;;;;;5.50;5.00;;;;;;;;;;4802275;29;20054;-81
2022/03/28 02:23:38;;;;;;;6.80;5.35;;;;;;;;;;4802018;29;20066;-81
2022/03/28 02:26:05;;;;;;;5.78;5.00;;;;;;;;;;4800167;29;20620;-81
2022/03/28 02:28:32;;;;;;;6.05;5.00;;;;;;;;;;4818063;29;20054;-81
2022/03/28 02:30:59;;;;;;;5.68;5.10;;;;;;;;;;4817462;29;20054;-81
2022/03/28 02:33:25;;;;;;;5.47;4.78;;;;;;;;;;4801945;29;20050;-81
2022/03/28 02:35:51;;;;;;;6.68;4.60;;;;;;;;;;4816387;29;20541;-81
2022/03/28 02:38:17;;;;;;;6.68;5.20;;;;;;;;;;4801574;29;20046;-82
2022/03/28 02:40:43;;;;;;;5.40;4.75;;;;;;;;;;4803446;29;20046;-81
2022/03/28 02:43:09;;;;;;;5.25;4.78;;;;;;;;;;4817911;29;20049;-81
2022/03/28 02:45:36;;;;;;;5.38;4.80;;;;;;;;;;4818747;29;20046;-82
2022/03/28 02:48:03;;;;;;;8.18;4.70;;;;;;;;;;4809515;29;20093;-82
2022/03/28 02:50:31;;;;;;;5.13;4.70;;;;;;;;;;4801458;29;20141;-82
2022/03/28 02:52:58;;;;;;;5.50;4.90;;;;;;;;;;4818684;29;20050;-82
2022/03/28 02:55:24;;;;;;;5.88;3.80;;;;;;;;;;4815936;29;20118;-82
2022/03/28 02:57:52;;;;;;;4.63;3.92;;;;;;;;;;4819447;29;20469;-82
2022/03/28 03:00:18;;;;;;;4.10;3.80;;;;;;;;;;4817095;29;20464;-81
2022/03/28 03:02:44;;;;;;;4.68;4.20;;;;;;;;;;4814349;29;20062;-82
2022/03/28 03:05:11;;;;;;;4.20;3.90;;;;;;;;;;4813407;29;20504;-81
2022/03/28 03:07:38;;;;;;;4.35;3.95;;;;;;;;;;4815631;29;20050;-81
2022/03/28 03:10:04;;;;;;;4.32;3.92;;;;;;;;;;4816038;29;20531;-81
2022/03/28 03:12:32;;;;;;;4.45;4.05;;;;;;;;;;4817810;29;20061;-81
2022/03/28 03:14:58;;;;;;;5.60;4.10;;;;;;;;;;4801689;29;20050;-81
2022/03/28 03:17:24;;;;;;;5.75;4.57;;;;;;;;;;4797949;29;20050;-81
2022/03/28 03:19:50;;;;;;;7.53;4.60;;;;;;;;;;4803201;29;20046;-81
2022/03/28 03:22:16;;;;;;;4.60;4.20;;;;;;;;;;4811674;29;20054;-81
2022/03/28 03:24:46;;;;;;;4.63;4.22;;;;;;;;;;4811515;29;20127;-81
2022/03/28 03:27:13;;;;;;;6.03;4.07;;;;;;;;;;4818072;29;20122;-81
2022/03/28 03:29:39;;;;;;;7.60;4.25;;;;;;;;;;4816315;29;20496;-81
2022/03/28 03:32:05;;;;;;;6.63;4.15;;;;;;;;;;4817870;29;20038;-81
2022/03/28 03:34:32;;;;;;;8.38;4.18;;;;;;;;;;4800928;29;20598;-81
2022/03/28 03:36:58;;;;;;;4.25;3.70;;;;;;;;;;4798668;29;20051;-81
2022/03/28 03:39:25;;;;;;;4.85;3.70;;;;;;;;;;4801010;29;20133;-81
2022/03/28 03:41:51;;;;;;;4.97;3.80;;;;;;;;;;4802995;29;20407;-81
2022/03/28 03:44:17;;;;;;;4.97;4.07;;;;;;;;;;4797686;29;20487;-81
2022/03/28 03:46:43;;;;;;;4.18;3.78;;;;;;;;;;4802071;29;20074;-81
2022/03/28 03:49:09;;;;;;;6.18;3.85;;;;;;;;;;4817563;29;20111;-81
2022/03/28 03:51:36;;;;;;;5.20;3.83;;;;;;;;;;4818797;29;20128;-81
2022/03/28 03:54:02;;;;;;;5.32;3.88;;;;;;;;;;4816044;29;20043;-81
2022/03/28 03:56:29;;;;;;;9.63;4.60;;;;;;;;;;4801343;29;20412;-81
2022/03/28 03:58:55;;;;;;;5.03;4.53;;;;;;;;;;4798075;29;20077;-81
2022/03/28 04:01:22;;;;;;;7.75;4.90;;;;;;;;;;4817277;29;20066;-81
2022/03/28 04:03:48;;;;;;;4.57;4.18;;;;;;;;;;4821319;29;20049;-81
2022/03/28 04:06:15;;;;;;;5.30;4.32;;;;;;;;;;4788482;29;20049;-81
2022/03/28 04:08:41;;;;;;;5.38;4.57;;;;;;;;;;4804361;29;20441;-81
2022/03/28 04:11:07;;;;;;;6.28;4.70;;;;;;;;;;4821020;29;20125;-81
2022/03/28 04:13:36;;;;;;;5.03;4.53;;;;;;;;;;4819873;29;20050;-81
2022/03/28 04:16:02;;;;;;;8.40;5.60;;;;;;;;;;4817486;29;20050;-81
2022/03/28 04:18:28;;;;;;;7.47;5.82;;;;;;;;;;4818379;29;20058;-81
2022/03/28 04:20:55;;;;;;;8.60;6.40;;;;;;;;;;4821446;29;20086;-81
2022/03/28 04:23:21;;;;;;;8.75;6.22;;;;;;;;;;4802280;29;20046;-81
2022/03/28 04:25:47;;;;;;;8.25;6.90;;;;;;;;;;4818704;29;20054;-81
2022/03/28 04:28:13;;;;;;;10.57;6.80;;;;;;;;;;4821135;29;20106;-81
2022/03/28 04:30:39;;;;;;;6.55;5.10;;;;;;;;;;4804346;29;20559;-81
2022/03/28 04:33:07;;;;;;;6.57;5.32;;;;;;;;;;4803897;29;20054;-80
2022/03/28 04:35:33;;;;;;;6.68;4.93;;;;;;;;;;4819225;29;20117;-81
2022/03/28 04:38:02;;;;;;;5.40;4.90;;;;;;;;;;4803527;29;20133;-81
2022/03/28 04:40:28;;;;;;;5.20;4.70;;;;;;;;;;4817964;29;20106;-81
2022/03/28 04:42:54;;;;;;;6.30;4.82;;;;;;;;;;4821051;29;20039;-81
2022/03/28 04:45:20;;;;;;;5.53;5.03;;;;;;;;;;4803104;29;20046;-80
2022/03/28 04:47:46;;;;;;;7.07;4.50;;;;;;;;;;4820567;29;20053;-81
2022/03/28 04:50:12;;;;;;;5.50;5.00;;;;;;;;;;4816693;29;20046;-81
2022/03/28 04:52:38;;;;;;;5.50;5.00;;;;;;;;;;4801511;29;20082;-81
2022/03/28 04:55:05;;;;;;;4.90;4.25;;;;;;;;;;4819756;29;20054;-80
2022/03/28 04:57:31;;;;;;;6.30;4.60;;;;;;;;;;4805739;29;20046;-81
2022/03/28 04:59:57;;;;;;;4.60;4.18;;;;;;;;;;4818803;29;20038;-81
2022/03/28 05:02:23;;;;;;;5.35;4.45;;;;;;;;;;4814248;29;20106;-81
2022/03/28 05:04:49;;;;;;;4.30;3.90;;;;;;;;;;4820264;29;20484;-80
2022/03/28 05:07:29;;;;;;;5.70;4.78;;;;;;;;;;4818825;29;20045;-81
2022/03/28 05:09:55;;;;;;;8.40;5.97;;;;;;;;;;4794381;29;20043;-80
2022/03/28 05:12:21;;;;;;;5.88;4.88;;;;;;;;;;4802007;29;20050;-80
2022/03/28 05:14:48;;;;;;;5.07;4.28;;;;;;;;;;4803082;29;20137;-81
2022/03/28 05:17:15;;;;;;;4.85;4.32;;;;;;;;;;4820690;29;20110;-81
2022/03/28 05:19:43;;;;;;;5.40;4.15;;;;;;;;;;4799827;29;20077;-81
2022/03/28 05:22:09;;;;;;;5.78;4.97;;;;;;;;;;4819580;29;20183;-80
2022/03/28 05:24:35;;;;;;;6.07;4.43;;;;;;;;;;4812640;29;20050;-81
2022/03/28 05:27:01;;;;;;;7.30;4.80;;;;;;;;;;4800407;29;20057;-80
2022/03/28 05:29:27;;;;;;;5.75;5.25;;;;;;;;;;4815318;29;20046;-80
2022/03/28 05:31:53;;;;;;;5.88;4.55;;;;;;;;;;4800912;29;20219;-81
2022/03/28 05:34:19;;;;;;;6.30;5.40;;;;;;;;;;4814941;29;20099;-81
2022/03/28 05:36:45;;;;;;;5.65;5.10;;;;;;;;;;4815363;29;20050;-81
2022/03/28 05:39:15;;;;;;;5.80;5.20;;;;;;;;;;4817867;29;20048;-82
2022/03/28 05:41:41;;;;;;;6.43;5.47;;;;;;;;;;4817136;29;20045;-81
2022/03/28 05:44:09;;;;;;;6.47;5.07;;;;;;;;;;4799567;29;20556;-80
2022/03/28 05:46:35;;;;;;;8.75;5.65;;;;;;;;;;4801087;29;20081;-80
2022/03/28 05:49:01;;;;;;;6.00;5.40;;;;;;;;;;4803689;29;20090;-76
2022/03/28 05:51:30;;;;;;;6.95;5.85;;;;;;;;;;4791207;29;20125;-81
2022/03/28 05:53:56;;;;;;;7.60;6.38;;;;;;;;;;4801554;29;20061;-84
2022/03/28 05:56:22;;;;;;;7.05;6.38;;;;;;;;;;4823361;29;20034;-84
2022/03/28 05:58:48;;;;;;;8.10;6.70;;;;;;;;;;4805056;29;20042;-83
2022/03/28 06:01:14;;;;;;;9.23;6.68;;;;;;;;;;4820414;29;20085;-83
2022/03/28 06:03:40;;;;;;;9.07;7.45;;;;;;;;;;4819045;29;20050;-84
2022/03/28 06:06:08;;;;;;;8.13;7.32;;;;;;;;;;4821394;29;20042;-83
2022/03/28 06:08:34;;;;;;;8.05;7.25;;;;;;;;;;4824466;29;20073;-84
2022/03/28 06:11:03;;;;;;;8.65;7.85;;;;;;;;;;4815835;29;20057;-84
2022/03/28 06:13:29;;;;;;;9.00;8.10;;;;;;;;;;4806534;29;20066;-84
2022/03/28 06:15:55;;;;;;;8.73;7.78;;;;;;;;;;4820613;29;20046;-85
2022/03/28 06:18:21;;;;;;;9.20;8.30;;;;;;;;;;4820197;29;20046;-85
2022/03/28 06:20:47;;;;;;;9.27;8.38;;;;;;;;;;4821333;29;20050;-84
2022/03/28 06:23:13;;;;;;;10.48;8.70;;;;;;;;;;4819799;29;20058;-83
2022/03/28 06:25:40;;;;;;;9.57;8.45;;;;;;;;;;4820235;29;20046;-85
2022/03/28 06:28:06;;;;;;;10.68;9.15;;;;;;;;;;4822150;29;20053;-84
2022/03/28 06:30:32;;;;;;;9.73;8.73;;;;;;;;;;4797804;29;20055;-84
2022/03/28 06:32:59;;;;;;;11.05;8.98;;;;;;;;;;4803413;29;20078;-85
2022/03/28 06:35:25;;;;;;;10.05;9.05;;;;;;;;;;4819131;29;20054;-85
2022/03/28 06:37:52;;;;;;;11.55;8.38;;;;;;;;;;4805052;29;20053;-85
2022/03/28 06:40:18;;;;;;;9.45;8.55;;;;;;;;;;4820540;29;20065;-84
2022/03/28 06:42:47;;;;;;;9.20;8.30;;;;;;;;;;4819439;29;20050;-83
2022/03/28 06:45:14;;;;;;;10.13;9.13;;;;;;;;;;4825998;29;20043;-84
2022/03/28 06:47:40;;;;;;;9.48;8.48;;;;;;;;;;4821610;29;20054;-85
2022/03/28 06:50:07;;;;;;;11.43;9.63;;;;;;;;;;4805038;29;20043;-85
2022/03/28 06:52:33;;;;;;;10.77;9.45;;;;;;;;;;4809206;29;20109;-85
2022/03/28 06:54:59;;;;;;;10.70;9.73;;;;;;;;;;4822263;29;20649;-83
2022/03/28 06:57:25;;;;;;;11.00;9.30;;;;;;;;;;4802552;29;20065;-84
2022/03/28 06:59:53;;;;;;;11.13;9.18;;;;;;;;;;4821060;29;20042;-84
2022/03/28 07:02:20;;;;;;;10.75;9.63;;;;;;;;;;4818491;29;20130;-85
2022/03/28 07:04:46;;;;;;;13.10;10.07;;;;;;;;;;4806193;29;20047;-85
2022/03/28 07:07:12;;;;;;;10.82;9.73;;;;;;;;;;4802883;29;20114;-87
2022/03/28 07:09:38;;;;;;;10.52;9.43;;;;;;;;;;4804666;29;20054;-86
2022/03/28 07:12:05;;;;;;;11.25;10.15;;;;;;;;;;4821272;29;20068;-85
2022/03/28 07:14:32;;;;;;;11.07;9.57;;;;;;;;;;4824943;29;20187;-85
2022/03/28 07:17:00;;;;;;;11.68;9.55;;;;;;;;;;4821317;29;20080;-85
2022/03/28 07:19:26;;;;;;;10.52;9.52;;;;;;;;;;4806939;29;20054;-85
2022/03/28 07:21:52;;;;;;;10.48;9.10;;;;;;;;;;4821941;29;20381;-86
2022/03/28 07:24:20;;;;;;;10.30;9.30;;;;;;;;;;4805002;29;20042;-85
2022/03/28 07:26:50;;;;;;;10.77;9.52;;;;;;;;;;4807626;29;20050;-85
2022/03/28 07:29:20;;;;;;;9.80;8.80;;;;;;;;;;4821607;29;20050;-85
2022/03/28 07:31:46;;;;;;;9.55;8.65;;;;;;;;;;4800047;29;20049;-85
2022/03/28 07:34:30;;;;;;;10.23;8.90;;;;;;;;;;4805668;29;20624;-85
2022/03/28 07:36:56;;;;;;;9.43;8.52;;;;;;;;;;4809266;29;20053;-86
2022/03/28 07:39:22;;;;;;;9.60;8.23;;;;;;;;;;4810054;29;20050;-84
2022/03/28 07:41:49;;;;;;;10.13;8.40;;;;;;;;;;4809706;29;20042;-85
2022/03/28 07:44:15;;;;;;;9.32;8.43;;;;;;;;;;4826096;29;20380;-84
2022/03/28 07:46:43;;;;;;;9.63;8.73;;;;;;;;;;4821536;29;20141;-86
2022/03/28 07:49:09;;;;;;;9.38;8.48;;;;;;;;;;4809167;29;20113;-86
2022/03/28 07:51:36;;;;;;;11.07;9.23;;;;;;;;;;4824100;29;20058;-85
2022/03/28 07:54:02;;;;;;;12.68;9.30;;;;;;;;;;4809851;29;20249;-86
2022/03/28 07:56:28;;;;;;;10.93;9.25;;;;;;;;;;4808333;29;20058;-85
2022/03/28 07:58:54;;;;;;;9.00;8.10;;;;;;;;;;4833539;29;20058;-86
2022/03/28 08:01:20;;;;;;;10.43;8.38;;;;;;;;;;4833093;29;20056;-85
2022/03/28 08:03:48;;;;;;;9.88;8.13;;;;;;;;;;4818989;29;20051;-85
2022/03/28 08:06:14;;;;;;;8.30;7.50;;;;;;;;;;4830027;29;20085;-85
2022/03/28 08:08:43;;;;;;;8.75;7.93;;;;;;;;;;4811096;29;20702;-86
2022/03/28 08:11:09;;;;;;;8.32;7.40;;;;;;;;;;4827115;29;20178;-86
2022/03/28 08:13:36;;;;;;;8.80;7.93;;;;;;;;;;4825488;29;20131;-86
2022/03/28 08:16:02;;;;;;;9.20;7.85;;;;;;;;;;4808941;29;20062;-85
2022/03/28 08:18:29;;;;;;;9.50;8.60;;;;;;;;;;4808392;29;20061;-86
2022/03/28 08:20:57;;;;;;;9.20;8.30;;;;;;;;;;4825545;29;20161;-85
2022/03/28 08:23:23;;;;;;;9.23;8.43;;;;;;;;;;4809205;29;20045;-86
2022/03/28 08:25:53;;;;;;;9.88;8.93;;;;;;;;;;4808067;29;20110;-86
2022/03/28 08:28:19;;;;;;;11.70;8.93;;;;;;;;;;4807479;29;20045;-85
2022/03/28 08:30:45;;;;;;;9.70;8.70;;;;;;;;;;4809162;29;20038;-85
2022/03/28 08:33:11;;;;;;;10.27;9.23;;;;;;;;;;4807983;29;20050;-85
2022/03/28 08:35:37;;;;;;;10.63;9.52;;;;;;;;;;4825998;29;20046;-86
2022/03/28 08:38:04;;;;;;;10.23;9.23;;;;;;;;;;4790503;29;20051;-86
2022/03/28 08:40:30;;;;;;;10.07;9.07;;;;;;;;;;4801067;29;20054;-86
2022/03/28 08:42:59;;;;;;;10.57;9.57;;;;;;;;;;4817589;29;20054;-86
2022/03/28 08:45:25;;;;;;;10.73;9.63;;;;;;;;;;4806476;29;20058;-85
2022/03/28 08:47:55;;;;;;;10.68;9.50;;;;;;;;;;4823580;29;20114;-85
2022/03/28 08:50:21;;;;;;;10.65;9.65;;;;;;;;;;4821016;29;20046;-86
2022/03/28 08:52:48;;;;;;;10.80;9.15;;;;;;;;;;4822402;29;20080;-86
2022/03/28 08:55:14;;;;;;;10.80;9.07;;;;;;;;;;4821934;29;20099;-86
2022/03/28 08:57:40;;;;;;;10.50;9.40;;;;;;;;;;4818760;29;20046;-86
2022/03/28 09:00:08;;;;;;;11.23;9.68;;;;;;;;;;4804366;29;20061;-86
2022/03/28 09:02:47;;;;;;;10.80;9.70;;;;;;;;;;4820964;29;20180;-83
2022/03/28 09:05:19;;;;;;;10.43;9.32;;;;;;;;;;4806415;29;20050;-84
2022/03/28 09:07:46;;;;;;;12.18;9.40;;;;;;;;;;4801833;29;20186;-84
2022/03/28 09:10:13;;;;;;;12.77;10.55;;;;;;;;;;4806579;29;20556;-86
2022/03/28 09:12:59;;;;;;;12.10;10.57;;;;;;;;;;4808009;29;20062;-85
2022/03/28 09:15:26;;;;;;;11.98;9.13;;;;;;;;;;4823120;29;20055;-86
2022/03/28 09:17:56;;;;;;;10.57;9.48;;;;;;;;;;4824734;29;20050;-85
2022/03/28 09:20:23;;;;;;;9.80;8.68;;;;;;;;;;4823417;29;20051;-86
2022/03/28 09:22:49;;;;;;;10.93;9.82;;;;;;;;;;4822571;29;20039;-86
2022/03/28 09:25:18;;;;;;;9.55;8.57;;;;;;;;;;4807051;29;20050;-86
2022/03/28 09:27:49;;;;;;;9.80;8.80;;;;;;;;;;4824076;29;20086;-86
2022/03/28 09:30:16;;;;;;;8.48;7.68;;;;;;;;;;4807689;29;20181;-81
2022/03/28 09:32:44;;;;;;;10.80;8.30;;;;;;;;;;4808886;29;20049;-86
2022/03/28 09:35:12;;;;;;;9.23;8.32;;;;;;;;;;4828158;29;20106;-86
2022/03/28 09:37:47;;;;;;;9.63;8.63;;;;;;;;;;4806298;29;20046;-86
2022/03/28 09:40:24;;;;;;;9.80;8.80;;;;;;;;;;4805549;29;20082;-86
2022/03/28 09:42:50;;;;;;;9.57;8.50;;;;;;;;;;4819451;29;20060;-87
2022/03/28 09:45:21;;;;;;;10.18;8.30;;;;;;;;;;4807093;29;20082;-86
2022/03/28 09:47:59;;;;;;;9.63;8.63;;;;;;;;;;4799037;29;20050;-86
2022/03/28 09:50:37;;;;;;;9.68;8.68;;;;;;;;;;4805459;29;20145;-86
2022/03/28 09:53:12;;;;;;;9.98;7.55;;;;;;;;;;4824423;29;20419;-85
2022/03/28 09:55:49;;;;;;;9.57;8.40;;;;;;;;;;4820229;29;20039;-86
2022/03/28 09:58:31;;;;;;;8.90;7.63;;;;;;;;;;4801439;29;20050;-85
2022/03/28 10:00:57;;;;;;;10.02;8.40;;;;;;;;;;4799590;29;20061;-85
2022/03/28 10:03:24;;;;;;;9.65;8.65;;;;;;;;;;4821944;29;20129;-86
2022/03/28 10:05:50;;;;;;;9.15;8.10;;;;;;;;;;4807085;29;20521;-86
2022/03/28 10:08:16;;;;;;;10.40;8.82;;;;;;;;;;4809909;29;20074;-86
2022/03/28 10:10:43;;;;;;;9.50;8.52;;;;;;;;;;4806600;29;20492;-86
2022/03/28 10:13:10;;;;;;;10.63;8.93;;;;;;;;;;4806603;29;20058;-85
2022/03/28 10:15:35;;;;;;;10.40;9.27;;;;;;;;;;4809776;29;20042;-86
2022/03/28 10:18:02;;;;;;;10.60;8.80;;;;;;;;;;4807838;29;20050;-85
2022/03/28 10:20:28;;;;;;;10.90;9.68;;;;;;;;;;4819367;29;20085;-87
2022/03/28 10:22:55;;;;;;;10.38;9.27;;;;;;;;;;4833162;29;20051;-85
2022/03/28 10:25:22;;;;;;;11.63;9.10;;;;;;;;;;4812228;29;20046;-86
2022/03/28 10:27:49;;;;;;;10.50;9.10;;;;;;;;;;4806107;29;20120;-86
2022/03/28 10:30:20;;;;;;;9.95;8.90;;;;;;;;;;4822078;29;20049;-85
2022/03/28 10:32:46;;;;;;;10.35;9.27;;;;;;;;;;4803638;29;20069;-86
2022/03/28 10:35:16;;;;;;;10.55;9.45;;;;;;;;;;4821328;29;20053;-84
2022/03/28 10:37:48;;;;;;;12.38;9.75;;;;;;;;;;4805363;29;20046;-86
2022/03/28 10:40:23;;;;;;;12.15;10.05;;;;;;;;;;4803685;29;20061;-84
2022/03/28 10:43:02;;;;;;;11.27;9.98;;;;;;;;;;4818923;29;20400;-86
2022/03/28 10:45:32;;;;;;;11.75;9.93;;;;;;;;;;4801852;29;20300;-86
2022/03/28 10:47:59;;;;;;;11.68;9.85;;;;;;;;;;4805361;29;20458;-85
2022/03/28 10:50:25;;;;;;;10.77;9.63;;;;;;;;;;4804150;29;20448;-87
2022/03/28 10:53:04;;;;;;;10.50;9.40;;;;;;;;;;4806016;29;20089;-86
2022/03/28 10:55:56;;;;;;;11.75;9.48;;;;;;;;;;4805620;29;20043;-86
2022/03/28 10:58:36;;;;;;;10.43;9.40;;;;;;;;;;4800074;29;20082;-86
2022/03/28 11:01:11;;;;;;;9.93;8.93;;;;;;;;;;4828004;29;20054;-86
2022/03/28 11:03:45;;;;;;;16.15;10.45;;;;;;;;;;4821337;29;20046;-87
2022/03/28 11:06:11;;;;;;;11.75;9.50;;;;;;;;;;4816032;29;20042;-87
2022/03/28 11:08:38;;;;;;;10.77;9.68;;;;;;;;;;4805965;29;20051;-88
2022/03/28 11:11:21;;;;;;;11.43;10.23;;;;;;;;;;4809215;29;20538;-86
2022/03/28 11:14:17;;;;;;;11.85;10.30;;;;;;;;;;4806700;29;20086;-86
2022/03/28 11:16:49;;;;;;;11.05;9.93;;;;;;;;;;4791043;29;20097;-86
2022/03/28 11:19:21;;;;;;;11.30;10.07;;;;;;;;;;4806394;29;20069;-85
2022/03/28 11:21:57;;;;;;;11.60;10.45;;;;;;;;;;4822542;29;20042;-86
2022/03/28 11:24:42;;;;;;;11.85;10.68;;;;;;;;;;4808003;29;20050;-85
2022/03/28 11:27:09;;;;;;;11.77;10.60;;;;;;;;;;4802341;29;20511;-85
2022/03/28 11:29:35;;;;;;;11.55;10.40;;;;;;;;;;4801756;29;20050;-85
2022/03/28 11:32:05;;;;;;;12.43;11.13;;;;;;;;;;4807854;29;20053;-86
2022/03/28 11:34:32;;;;;;;12.30;10.98;;;;;;;;;;4811906;29;20396;-85
2022/03/28 11:36:58;;;;;;;13.52;11.02;;;;;;;;;;4825066;29;20050;-85
2022/03/28 11:39:27;;;;;;;11.65;10.45;;;;;;;;;;4824965;29;20110;-87
2022/03/28 11:41:53;;;;;;;11.07;9.88;;;;;;;;;;4809877;29;20134;-87
2022/03/28 11:44:24;;;;;;;11.95;10.40;;;;;;;;;;4823198;29;20046;-83
2022/03/28 11:46:54;;;;;;;14.93;10.85;;;;;;;;;;4823383;29;20050;-84
2022/03/28 11:49:21;;;;;;;11.63;10.43;;;;;;;;;;4804819;29;20043;-84
2022/03/28 11:51:48;;;;;;;12.45;11.05;;;;;;;;;;4806902;29;20050;-84
2022/03/28 11:54:16;;;;;;;12.68;11.38;;;;;;;;;;4806546;29;20046;-84
2022/03/28 11:59:28;;;;;;;12.02;10.82;;;;;;;;;;4811733;29;20065;-84
2022/03/28 12:01:58;;;;;;;12.55;11.25;;;;;;;;;;4822939;29;20058;-84
2022/03/28 12:04:24;;;;;;;13.63;10.82;;;;;;;;;;4821568;29;20051;-84
2022/03/28 12:06:53;;;;;;;12.40;11.02;;;;;;;;;;4825723;29;20061;-84
2022/03/28 12:09:23;;;;;;;12.23;11.02;;;;;;;;;;4806862;29;20058;-85
2022/03/28 12:11:52;;;;;;;12.40;11.20;;;;;;;;;;4802161;29;20622;-85
2022/03/28 12:14:18;;;;;;;11.52;9.63;;;;;;;;;;4822905;29;20061;-84
2022/03/28 12:17:04;;;;;;;10.45;9.10;;;;;;;;;;4817767;29;20046;-84
2022/03/28 12:19:30;;;;;;;9.77;8.77;;;;;;;;;;4802076;29;20066;-84
2022/03/28 12:21:57;;;;;;;11.07;9.90;;;;;;;;;;4820488;29;20121;-84
2022/03/28 12:24:25;;;;;;;10.43;9.48;;;;;;;;;;4821909;29;20034;-85
2022/03/28 12:26:53;;;;;;;10.13;9.20;;;;;;;;;;4806853;29;20153;-84
2022/03/28 12:29:19;;;;;;;10.18;9.27;;;;;;;;;;4804264;29;20093;-84
2022/03/28 12:31:46;;;;;;;12.57;9.82;;;;;;;;;;4822803;29;20099;-84
2022/03/28 12:34:12;;;;;;;10.52;9.50;;;;;;;;;;4821470;29;20405;-84
2022/03/28 12:36:39;;;;;;;9.70;8.80;;;;;;;;;;4823645;29;20084;-84
2022/03/28 12:39:07;;;;;;;10.70;9.60;;;;;;;;;;4805683;29;20058;-84
2022/03/28 12:41:40;;;;;;;10.82;9.73;;;;;;;;;;4809869;29;20461;-84
2022/03/28 12:44:12;;;;;;;10.32;9.32;;;;;;;;;;4825931;29;20101;-84
2022/03/28 12:46:39;;;;;;;10.02;9.13;;;;;;;;;;4825987;29;20054;-85
2022/03/28 12:49:32;;;;;;;10.57;9.50;;;;;;;;;;4806242;29;20062;-84
2022/03/28 12:52:08;;;;;;;10.90;9.70;;;;;;;;;;4790092;29;20050;-84
2022/03/28 12:54:34;;;;;;;10.93;9.80;;;;;;;;;;4822312;29;20089;-82
2022/03/28 12:57:02;;;;;;;10.95;9.95;;;;;;;;;;4822991;29;20135;-84
2022/03/28 12:59:29;;;;;;;11.63;10.10;;;;;;;;;;4821820;29;20057;-84
2022/03/28 13:02:09;;;;;;;10.82;9.75;;;;;;;;;;4805834;29;20050;-84
2022/03/28 13:04:52;;;;;;;11.40;10.40;;;;;;;;;;4822435;29;20047;-84
2022/03/28 13:07:19;;;;;;;11.00;10.00;;;;;;;;;;4804388;29;20065;-84
2022/03/28 13:10:07;;;;;;;10.85;9.85;;;;;;;;;;4801491;29;20078;-83
2022/03/28 13:12:41;;;;;;;11.27;10.18;;;;;;;;;;4822504;29;20054;-84
2022/03/28 13:15:08;;;;;;;10.77;9.85;;;;;;;;;;4804953;29;20050;-84
2022/03/28 13:17:34;;;;;;;11.90;10.70;;;;;;;;;;4822691;29;20396;-84
2022/03/28 13:20:04;;;;;;;11.48;10.48;;;;;;;;;;4802482;29;20171;-83
2022/03/28 13:22:32;;;;;;;12.63;10.30;;;;;;;;;;4816324;29;20514;-84
2022/03/28 13:25:19;;;;;;;10.85;9.77;;;;;;;;;;4806059;29;20134;-84
2022/03/28 13:28:02;;;;;;;10.75;9.65;;;;;;;;;;4805862;29;20130;-83
2022/03/28 13:30:29;;;;;;;11.48;10.35;;;;;;;;;;4805788;29;20038;-84
2022/03/28 13:32:58;;;;;;;11.00;10.00;;;;;;;;;;4820499;29;20058;-85
2022/03/28 13:35:24;;;;;;;12.18;10.80;;;;;;;;;;4803681;29;20042;-84
2022/03/28 13:38:04;;;;;;;11.52;10.43;;;;;;;;;;4803713;29;20508;-84
2022/03/28 13:40:31;;;;;;;11.43;10.32;;;;;;;;;;4805001;29;20057;-84
2022/03/28 13:42:57;;;;;;;11.98;10.00;;;;;;;;;;4818451;29;20039;-86
2022/03/28 13:45:23;;;;;;;11.77;10.57;;;;;;;;;;4805925;29;20137;-84
2022/03/28 13:47:50;;;;;;;10.85;9.73;;;;;;;;;;4822026;29;20049;-84
2022/03/28 13:50:17;;;;;;;11.55;10.35;;;;;;;;;;4820927;29;20078;-84
2022/03/28 13:52:43;;;;;;;11.25;10.15;;;;;;;;;;4817872;29;20038;-84
2022/03/28 13:55:10;;;;;;;11.52;10.43;;;;;;;;;;4804699;29;20440;-84
2022/03/28 13:57:36;;;;;;;11.57;10.48;;;;;;;;;;4804964;29;20050;-84
2022/03/28 14:00:03;;;;;;;12.13;10.93;;;;;;;;;;4821630;29;20093;-84
2022/03/28 14:02:29;;;;;;;11.20;10.20;;;;;;;;;;4802076;29;20253;-83
2022/03/28 14:04:55;;;;;;;12.27;11.18;;;;;;;;;;4818283;29;20495;-84
2022/03/28 14:07:21;;;;;;;11.20;10.15;;;;;;;;;;4805776;29;20050;-84
2022/03/28 14:09:47;;;;;;;12.45;10.93;;;;;;;;;;4804548;29;20049;-84
2022/03/28 14:12:13;;;;;;;12.00;10.90;;;;;;;;;;4800179;29;20062;-84
2022/03/28 14:14:40;;;;;;;11.88;10.68;;;;;;;;;;4803630;29;20105;-83
2022/03/28 14:17:09;;;;;;;13.25;11.15;;;;;;;;;;4801380;29;20058;-84
2022/03/28 14:19:36;;;;;;;12.70;11.50;;;;;;;;;;4801067;29;20408;-84
2022/03/28 14:22:02;;;;;;;12.38;11.15;;;;;;;;;;4803175;29;20070;-83
2022/03/28 14:24:29;;;;;;;12.35;11.15;;;;;;;;;;4801050;29;20480;-83
2022/03/28 14:26:55;;;;;;;12.45;11.25;;;;;;;;;;4801917;29;20524;-81
2022/03/28 14:29:21;;;;;;;12.85;11.18;;;;;;;;;;4794324;29;20064;-84
2022/03/28 14:31:47;;;;;;;12.65;11.45;;;;;;;;;;4796665;29;20054;-83
2022/03/28 14:34:14;;;;;;;13.15;11.82;;;;;;;;;;4804341;29;20065;-83
2022/03/28 14:36:40;;;;;;;12.38;11.18;;;;;;;;;;4803204;29;20055;-82
2022/03/28 14:39:06;;;;;;;12.93;11.25;;;;;;;;;;4802044;29;20051;-82
2022/03/28 14:41:32;;;;;;;12.95;11.65;;;;;;;;;;4803393;29;20051;-82
2022/03/28 14:43:58;;;;;;;13.13;11.90;;;;;;;;;;4807294;29;20051;-83